sensor_id;sensor_type;location;lat;lon;timestamp;P1;durP1;ratioP1;P2;durP2;ratioP2
77234;SDS011;66253;50.526;14.974;2023-07-31T00:01:50;3.70;;;1.30;;
77234;SDS011;66253;50.526;14.974;2023-07-31T00:04:18;6.00;;;1.50;;
77234;SDS011;66253;50.526;14.974;2023-07-31T00:06:47;6.30;;;1.30;;
77234;SDS011;66253;50.526;14.974;2023-07-31T00:09:15;3.80;;;1.60;;
77234;SDS011;66253;50.526;14.974;2023-07-31T00:11:43;3.20;;;1.40;;
77234;SDS011;66253;50.526;14.974;2023-07-31T00:14:11;4.00;;;1.40;;
77234;SDS011;66253;50.526;14.974;2023-07-31T00:16:40;4.20;;;1.80;;
77234;SDS011;66253;50.526;14.974;2023-07-31T00:19:09;3.70;;;1.40;;
77234;SDS011;66253;50.526;14.974;2023-07-31T00:21:40;3.00;;;1.20;;
77234;SDS011;66253;50.526;14.974;2023-07-31T00:24:08;3.90;;;1.50;;
77234;SDS011;66253;50.526;14.974;2023-07-31T00:26:36;3.90;;;1.70;;
77234;SDS011;66253;50.526;14.974;2023-07-31T00:29:05;4.20;;;1.20;;
77234;SDS011;66253;50.526;14.974;2023-07-31T00:31:33;3.70;;;1.20;;
77234;SDS011;66253;50.526;14.974;2023-07-31T00:34:01;3.50;;;1.20;;
77234;SDS011;66253;50.526;14.974;2023-07-31T00:36:29;3.90;;;1.40;;
77234;SDS011;66253;50.526;14.974;2023-07-31T00:38:58;4.40;;;1.60;;
77234;SDS011;66253;50.526;14.974;2023-07-31T00:41:26;4.30;;;1.30;;
77234;SDS011;66253;50.526;14.974;2023-07-31T00:43:55;3.50;;;1.30;;
77234;SDS011;66253;50.526;14.974;2023-07-31T00:46:24;4.30;;;1.80;;
77234;SDS011;66253;50.526;14.974;2023-07-31T00:48:52;4.40;;;1.50;;
77234;SDS011;66253;50.526;14.974;2023-07-31T00:51:21;4.10;;;1.20;;
77234;SDS011;66253;50.526;14.974;2023-07-31T00:53:49;3.90;;;1.40;;
77234;SDS011;66253;50.526;14.974;2023-07-31T00:56:18;3.70;;;1.40;;
77234;SDS011;66253;50.526;14.974;2023-07-31T00:58:46;9.50;;;2.30;;
77234;SDS011;66253;50.526;14.974;2023-07-31T01:01:15;4.10;;;1.50;;
77234;SDS011;66253;50.526;14.974;2023-07-31T01:03:43;2.80;;;1.20;;
77234;SDS011;66253;50.526;14.974;2023-07-31T01:06:14;3.10;;;1.30;;
77234;SDS011;66253;50.526;14.974;2023-07-31T01:08:52;3.50;;;1.50;;
77234;SDS011;66253;50.526;14.974;2023-07-31T01:11:27;4.50;;;1.40;;
77234;SDS011;66253;50.526;14.974;2023-07-31T01:13:56;3.40;;;1.50;;
77234;SDS011;66253;50.526;14.974;2023-07-31T01:16:26;6.00;;;2.00;;
77234;SDS011;66253;50.526;14.974;2023-07-31T01:18:54;3.50;;;1.20;;
77234;SDS011;66253;50.526;14.974;2023-07-31T01:21:35;4.20;;;1.30;;
77234;SDS011;66253;50.526;14.974;2023-07-31T01:24:21;3.30;;;1.10;;
77234;SDS011;66253;50.526;14.974;2023-07-31T01:26:57;3.30;;;1.00;;
77234;SDS011;66253;50.526;14.974;2023-07-31T01:29:35;4.30;;;1.30;;
77234;SDS011;66253;50.526;14.974;2023-07-31T01:32:09;4.80;;;1.10;;
77234;SDS011;66253;50.526;14.974;2023-07-31T01:34:39;5.10;;;1.70;;
77234;SDS011;66253;50.526;14.974;2023-07-31T01:37:08;2.60;;;1.00;;
77234;SDS011;66253;50.526;14.974;2023-07-31T01:39:36;4.60;;;1.10;;
77234;SDS011;66253;50.526;14.974;2023-07-31T01:42:04;5.30;;;1.30;;
77234;SDS011;66253;50.526;14.974;2023-07-31T01:44:33;3.90;;;1.80;;
77234;SDS011;66253;50.526;14.974;2023-07-31T01:47:01;3.50;;;1.50;;
77234;SDS011;66253;50.526;14.974;2023-07-31T01:49:30;6.00;;;1.20;;
77234;SDS011;66253;50.526;14.974;2023-07-31T01:51:58;2.90;;;1.30;;
77234;SDS011;66253;50.526;14.974;2023-07-31T01:54:26;4.80;;;1.40;;
77234;SDS011;66253;50.526;14.974;2023-07-31T01:56:55;4.90;;;1.70;;
77234;SDS011;66253;50.526;14.974;2023-07-31T01:59:23;8.40;;;1.90;;
77234;SDS011;66253;50.526;14.974;2023-07-31T02:01:51;5.50;;;1.30;;
77234;SDS011;66253;50.526;14.974;2023-07-31T02:04:19;9.30;;;1.50;;
77234;SDS011;66253;50.526;14.974;2023-07-31T02:06:48;11.10;;;1.40;;
77234;SDS011;66253;50.526;14.974;2023-07-31T02:09:16;10.30;;;2.00;;
77234;SDS011;66253;50.526;14.974;2023-07-31T02:11:44;7.30;;;1.90;;
77234;SDS011;66253;50.526;14.974;2023-07-31T02:14:13;7.30;;;1.30;;
77234;SDS011;66253;50.526;14.974;2023-07-31T02:16:41;15.90;;;1.80;;
77234;SDS011;66253;50.526;14.974;2023-07-31T02:19:10;15.00;;;1.50;;
77234;SDS011;66253;50.526;14.974;2023-07-31T02:21:38;9.40;;;1.00;;
77234;SDS011;66253;50.526;14.974;2023-07-31T02:24:06;10.30;;;1.30;;
77234;SDS011;66253;50.526;14.974;2023-07-31T02:26:34;5.10;;;1.00;;
77234;SDS011;66253;50.526;14.974;2023-07-31T02:29:03;10.70;;;1.10;;
77234;SDS011;66253;50.526;14.974;2023-07-31T02:31:31;3.90;;;1.10;;
77234;SDS011;66253;50.526;14.974;2023-07-31T02:33:59;7.60;;;1.30;;
77234;SDS011;66253;50.526;14.974;2023-07-31T02:36:27;16.00;;;1.60;;
77234;SDS011;66253;50.526;14.974;2023-07-31T02:38:56;16.10;;;1.60;;
77234;SDS011;66253;50.526;14.974;2023-07-31T02:41:24;14.40;;;1.70;;
77234;SDS011;66253;50.526;14.974;2023-07-31T02:43:52;3.50;;;1.40;;
77234;SDS011;66253;50.526;14.974;2023-07-31T02:46:21;12.30;;;1.30;;
77234;SDS011;66253;50.526;14.974;2023-07-31T02:48:49;5.30;;;1.10;;
77234;SDS011;66253;50.526;14.974;2023-07-31T02:51:17;3.90;;;1.10;;
77234;SDS011;66253;50.526;14.974;2023-07-31T02:53:45;4.40;;;1.00;;
77234;SDS011;66253;50.526;14.974;2023-07-31T02:56:14;9.50;;;1.10;;
77234;SDS011;66253;50.526;14.974;2023-07-31T02:58:42;10.00;;;1.40;;
77234;SDS011;66253;50.526;14.974;2023-07-31T03:01:10;5.50;;;1.10;;
77234;SDS011;66253;50.526;14.974;2023-07-31T03:03:39;7.00;;;1.20;;
77234;SDS011;66253;50.526;14.974;2023-07-31T03:09:30;6.10;;;1.00;;
77234;SDS011;66253;50.526;14.974;2023-07-31T03:11:59;6.40;;;0.80;;
77234;SDS011;66253;50.526;14.974;2023-07-31T03:14:28;9.60;;;0.90;;
77234;SDS011;66253;50.526;14.974;2023-07-31T03:16:56;3.80;;;0.90;;
77234;SDS011;66253;50.526;14.974;2023-07-31T03:21:52;4.50;;;1.20;;
77234;SDS011;66253;50.526;14.974;2023-07-31T03:24:21;9.50;;;0.90;;
77234;SDS011;66253;50.526;14.974;2023-07-31T03:26:49;2.80;;;0.80;;
77234;SDS011;66253;50.526;14.974;2023-07-31T03:29:17;5.50;;;1.30;;
77234;SDS011;66253;50.526;14.974;2023-07-31T03:31:46;7.90;;;2.50;;
77234;SDS011;66253;50.526;14.974;2023-07-31T03:34:14;7.60;;;1.30;;
77234;SDS011;66253;50.526;14.974;2023-07-31T03:36:42;4.10;;;1.30;;
77234;SDS011;66253;50.526;14.974;2023-07-31T03:39:11;8.10;;;1.00;;
77234;SDS011;66253;50.526;14.974;2023-07-31T03:41:39;6.30;;;1.10;;
77234;SDS011;66253;50.526;14.974;2023-07-31T03:44:07;7.00;;;1.10;;
77234;SDS011;66253;50.526;14.974;2023-07-31T03:46:36;4.60;;;1.00;;
77234;SDS011;66253;50.526;14.974;2023-07-31T03:49:04;3.60;;;1.00;;
77234;SDS011;66253;50.526;14.974;2023-07-31T03:51:32;4.20;;;1.10;;
77234;SDS011;66253;50.526;14.974;2023-07-31T03:54:01;4.40;;;1.20;;
77234;SDS011;66253;50.526;14.974;2023-07-31T03:56:29;4.00;;;1.30;;
77234;SDS011;66253;50.526;14.974;2023-07-31T03:58:57;4.70;;;1.00;;
77234;SDS011;66253;50.526;14.974;2023-07-31T04:01:26;7.60;;;1.30;;
77234;SDS011;66253;50.526;14.974;2023-07-31T04:03:54;4.50;;;1.10;;
77234;SDS011;66253;50.526;14.974;2023-07-31T04:06:22;3.80;;;1.20;;
77234;SDS011;66253;50.526;14.974;2023-07-31T04:08:51;5.80;;;1.20;;
77234;SDS011;66253;50.526;14.974;2023-07-31T04:11:19;4.90;;;0.90;;
77234;SDS011;66253;50.526;14.974;2023-07-31T04:13:47;3.60;;;1.20;;
77234;SDS011;66253;50.526;14.974;2023-07-31T04:16:16;4.30;;;1.10;;
77234;SDS011;66253;50.526;14.974;2023-07-31T04:18:44;2.70;;;1.30;;
77234;SDS011;66253;50.526;14.974;2023-07-31T04:21:12;4.00;;;0.80;;
77234;SDS011;66253;50.526;14.974;2023-07-31T04:23:40;5.00;;;1.20;;
77234;SDS011;66253;50.526;14.974;2023-07-31T04:26:09;3.10;;;1.10;;
77234;SDS011;66253;50.526;14.974;2023-07-31T04:28:37;2.70;;;1.30;;
77234;SDS011;66253;50.526;14.974;2023-07-31T04:31:05;3.30;;;1.70;;
77234;SDS011;66253;50.526;14.974;2023-07-31T04:33:34;3.70;;;1.80;;
77234;SDS011;66253;50.526;14.974;2023-07-31T04:36:02;3.80;;;1.40;;
77234;SDS011;66253;50.526;14.974;2023-07-31T04:38:31;6.30;;;1.20;;
77234;SDS011;66253;50.526;14.974;2023-07-31T04:40:59;3.80;;;1.00;;
77234;SDS011;66253;50.526;14.974;2023-07-31T04:43:28;2.70;;;1.20;;
77234;SDS011;66253;50.526;14.974;2023-07-31T04:45:56;6.10;;;1.20;;
77234;SDS011;66253;50.526;14.974;2023-07-31T04:48:24;4.10;;;1.40;;
77234;SDS011;66253;50.526;14.974;2023-07-31T04:50:53;3.00;;;1.50;;
77234;SDS011;66253;50.526;14.974;2023-07-31T04:53:21;4.00;;;1.40;;
77234;SDS011;66253;50.526;14.974;2023-07-31T04:55:49;4.70;;;1.40;;
77234;SDS011;66253;50.526;14.974;2023-07-31T04:58:18;4.10;;;1.40;;
77234;SDS011;66253;50.526;14.974;2023-07-31T05:00:46;3.70;;;1.50;;
77234;SDS011;66253;50.526;14.974;2023-07-31T05:03:14;4.00;;;1.20;;
77234;SDS011;66253;50.526;14.974;2023-07-31T05:05:43;4.40;;;1.20;;
77234;SDS011;66253;50.526;14.974;2023-07-31T05:08:11;3.50;;;1.40;;
77234;SDS011;66253;50.526;14.974;2023-07-31T05:10:39;6.30;;;1.50;;
77234;SDS011;66253;50.526;14.974;2023-07-31T05:13:07;5.60;;;1.50;;
77234;SDS011;66253;50.526;14.974;2023-07-31T05:15:36;3.40;;;1.40;;
77234;SDS011;66253;50.526;14.974;2023-07-31T05:18:04;4.60;;;1.40;;
77234;SDS011;66253;50.526;14.974;2023-07-31T05:20:32;4.10;;;1.80;;
77234;SDS011;66253;50.526;14.974;2023-07-31T05:23:01;3.90;;;1.40;;
77234;SDS011;66253;50.526;14.974;2023-07-31T05:25:29;4.70;;;2.00;;
77234;SDS011;66253;50.526;14.974;2023-07-31T05:27:57;5.00;;;1.70;;
77234;SDS011;66253;50.526;14.974;2023-07-31T05:30:25;3.90;;;1.60;;
77234;SDS011;66253;50.526;14.974;2023-07-31T05:32:55;5.50;;;2.20;;
77234;SDS011;66253;50.526;14.974;2023-07-31T05:35:24;2.90;;;1.10;;
77234;SDS011;66253;50.526;14.974;2023-07-31T05:37:52;4.70;;;1.40;;
77234;SDS011;66253;50.526;14.974;2023-07-31T05:40:20;4.70;;;1.40;;
77234;SDS011;66253;50.526;14.974;2023-07-31T05:42:49;5.70;;;1.50;;
77234;SDS011;66253;50.526;14.974;2023-07-31T05:45:17;5.10;;;1.60;;
77234;SDS011;66253;50.526;14.974;2023-07-31T05:47:45;4.30;;;1.60;;
77234;SDS011;66253;50.526;14.974;2023-07-31T05:50:14;5.60;;;1.50;;
77234;SDS011;66253;50.526;14.974;2023-07-31T05:52:42;3.90;;;1.60;;
77234;SDS011;66253;50.526;14.974;2023-07-31T05:55:10;4.00;;;1.60;;
77234;SDS011;66253;50.526;14.974;2023-07-31T05:57:39;6.50;;;1.50;;
77234;SDS011;66253;50.526;14.974;2023-07-31T06:00:08;4.50;;;1.40;;
77234;SDS011;66253;50.526;14.974;2023-07-31T06:02:38;4.90;;;1.80;;
77234;SDS011;66253;50.526;14.974;2023-07-31T06:05:07;5.20;;;1.80;;
77234;SDS011;66253;50.526;14.974;2023-07-31T06:07:35;4.00;;;1.50;;
77234;SDS011;66253;50.526;14.974;2023-07-31T06:10:05;6.10;;;1.90;;
77234;SDS011;66253;50.526;14.974;2023-07-31T06:12:34;7.80;;;1.90;;
77234;SDS011;66253;50.526;14.974;2023-07-31T06:15:03;7.70;;;1.40;;
77234;SDS011;66253;50.526;14.974;2023-07-31T06:17:32;7.40;;;1.80;;
77234;SDS011;66253;50.526;14.974;2023-07-31T06:20:00;6.90;;;1.60;;
77234;SDS011;66253;50.526;14.974;2023-07-31T06:22:30;7.60;;;1.80;;
77234;SDS011;66253;50.526;14.974;2023-07-31T06:24:59;6.20;;;2.10;;
77234;SDS011;66253;50.526;14.974;2023-07-31T06:27:28;5.70;;;2.20;;
77234;SDS011;66253;50.526;14.974;2023-07-31T06:29:56;7.50;;;1.90;;
77234;SDS011;66253;50.526;14.974;2023-07-31T06:32:25;4.60;;;1.70;;
77234;SDS011;66253;50.526;14.974;2023-07-31T06:34:53;7.40;;;2.20;;
77234;SDS011;66253;50.526;14.974;2023-07-31T06:37:21;4.50;;;1.80;;
77234;SDS011;66253;50.526;14.974;2023-07-31T06:39:50;4.70;;;1.60;;
77234;SDS011;66253;50.526;14.974;2023-07-31T06:42:18;4.80;;;1.30;;
77234;SDS011;66253;50.526;14.974;2023-07-31T06:44:46;6.30;;;2.00;;
77234;SDS011;66253;50.526;14.974;2023-07-31T06:47:18;5.20;;;1.60;;
77234;SDS011;66253;50.526;14.974;2023-07-31T06:49:46;3.60;;;1.20;;
77234;SDS011;66253;50.526;14.974;2023-07-31T06:52:14;5.60;;;1.20;;
77234;SDS011;66253;50.526;14.974;2023-07-31T06:54:42;5.60;;;1.70;;
77234;SDS011;66253;50.526;14.974;2023-07-31T06:57:11;6.60;;;1.60;;
77234;SDS011;66253;50.526;14.974;2023-07-31T06:59:39;8.30;;;1.90;;
77234;SDS011;66253;50.526;14.974;2023-07-31T07:02:07;4.00;;;1.10;;
77234;SDS011;66253;50.526;14.974;2023-07-31T07:10:08;6.60;;;1.60;;
77234;SDS011;66253;50.526;14.974;2023-07-31T07:12:36;9.10;;;1.70;;
77234;SDS011;66253;50.526;14.974;2023-07-31T07:15:05;4.40;;;1.60;;
77234;SDS011;66253;50.526;14.974;2023-07-31T07:17:35;7.00;;;2.30;;
77234;SDS011;66253;50.526;14.974;2023-07-31T07:20:03;4.00;;;1.60;;
77234;SDS011;66253;50.526;14.974;2023-07-31T07:22:34;6.70;;;1.60;;
77234;SDS011;66253;50.526;14.974;2023-07-31T07:25:03;7.20;;;2.00;;
77234;SDS011;66253;50.526;14.974;2023-07-31T07:27:32;4.30;;;1.60;;
77234;SDS011;66253;50.526;14.974;2023-07-31T07:30:00;5.70;;;1.50;;
77234;SDS011;66253;50.526;14.974;2023-07-31T07:32:30;4.70;;;1.50;;
77234;SDS011;66253;50.526;14.974;2023-07-31T07:34:59;4.70;;;2.40;;
77234;SDS011;66253;50.526;14.974;2023-07-31T07:37:28;5.00;;;1.50;;
77234;SDS011;66253;50.526;14.974;2023-07-31T07:39:57;4.50;;;1.30;;
77234;SDS011;66253;50.526;14.974;2023-07-31T07:42:25;3.90;;;1.60;;
77234;SDS011;66253;50.526;14.974;2023-07-31T07:44:53;6.40;;;1.60;;
77234;SDS011;66253;50.526;14.974;2023-07-31T07:47:21;5.10;;;1.70;;
77234;SDS011;66253;50.526;14.974;2023-07-31T07:49:50;8.10;;;1.50;;
77234;SDS011;66253;50.526;14.974;2023-07-31T07:52:18;5.40;;;2.00;;
77234;SDS011;66253;50.526;14.974;2023-07-31T07:54:47;4.30;;;1.60;;
77234;SDS011;66253;50.526;14.974;2023-07-31T07:57:16;7.10;;;1.60;;
77234;SDS011;66253;50.526;14.974;2023-07-31T07:59:45;5.90;;;1.80;;
77234;SDS011;66253;50.526;14.974;2023-07-31T08:14:57;4.70;;;1.30;;
77234;SDS011;66253;50.526;14.974;2023-07-31T08:17:25;4.30;;;1.70;;
77234;SDS011;66253;50.526;14.974;2023-07-31T08:19:54;5.60;;;1.90;;
77234;SDS011;66253;50.526;14.974;2023-07-31T08:22:22;9.50;;;2.30;;
77234;SDS011;66253;50.526;14.974;2023-07-31T08:24:51;4.80;;;1.50;;
77234;SDS011;66253;50.526;14.974;2023-07-31T08:27:19;5.50;;;1.90;;
77234;SDS011;66253;50.526;14.974;2023-07-31T08:29:47;4.40;;;1.50;;
77234;SDS011;66253;50.526;14.974;2023-07-31T08:32:18;4.70;;;1.60;;
77234;SDS011;66253;50.526;14.974;2023-07-31T08:34:46;4.60;;;1.90;;
77234;SDS011;66253;50.526;14.974;2023-07-31T08:37:14;6.40;;;1.50;;
77234;SDS011;66253;50.526;14.974;2023-07-31T08:39:43;8.60;;;1.90;;
77234;SDS011;66253;50.526;14.974;2023-07-31T08:42:11;7.40;;;1.40;;
77234;SDS011;66253;50.526;14.974;2023-07-31T08:44:40;5.10;;;1.90;;
77234;SDS011;66253;50.526;14.974;2023-07-31T08:47:09;6.90;;;1.60;;
77234;SDS011;66253;50.526;14.974;2023-07-31T08:49:38;5.50;;;1.70;;
77234;SDS011;66253;50.526;14.974;2023-07-31T08:52:08;4.20;;;1.30;;
77234;SDS011;66253;50.526;14.974;2023-07-31T08:54:38;5.00;;;1.30;;
77234;SDS011;66253;50.526;14.974;2023-07-31T08:57:06;5.00;;;1.50;;
77234;SDS011;66253;50.526;14.974;2023-07-31T08:59:36;4.90;;;1.60;;
77234;SDS011;66253;50.526;14.974;2023-07-31T09:02:05;5.30;;;1.90;;
77234;SDS011;66253;50.526;14.974;2023-07-31T09:04:34;7.70;;;1.50;;
77234;SDS011;66253;50.526;14.974;2023-07-31T09:07:03;3.90;;;1.60;;
77234;SDS011;66253;50.526;14.974;2023-07-31T09:09:33;5.50;;;1.40;;
77234;SDS011;66253;50.526;14.974;2023-07-31T09:12:01;7.40;;;3.30;;
77234;SDS011;66253;50.526;14.974;2023-07-31T09:14:31;8.40;;;2.70;;
77234;SDS011;66253;50.526;14.974;2023-07-31T09:17:00;7.20;;;2.20;;
77234;SDS011;66253;50.526;14.974;2023-07-31T09:19:32;6.30;;;2.80;;
77234;SDS011;66253;50.526;14.974;2023-07-31T09:22:01;8.40;;;3.30;;
77234;SDS011;66253;50.526;14.974;2023-07-31T09:24:30;6.60;;;3.00;;
77234;SDS011;66253;50.526;14.974;2023-07-31T09:27:00;8.20;;;2.60;;
77234;SDS011;66253;50.526;14.974;2023-07-31T09:29:29;11.70;;;2.70;;
77234;SDS011;66253;50.526;14.974;2023-07-31T09:31:57;5.80;;;1.90;;
77234;SDS011;66253;50.526;14.974;2023-07-31T09:34:29;5.70;;;1.80;;
77234;SDS011;66253;50.526;14.974;2023-07-31T09:37:04;5.20;;;1.20;;
77234;SDS011;66253;50.526;14.974;2023-07-31T09:39:32;6.70;;;2.60;;
77234;SDS011;66253;50.526;14.974;2023-07-31T09:42:13;4.30;;;1.50;;
77234;SDS011;66253;50.526;14.974;2023-07-31T09:44:50;6.10;;;1.70;;
77234;SDS011;66253;50.526;14.974;2023-07-31T09:47:24;3.70;;;1.40;;
77234;SDS011;66253;50.526;14.974;2023-07-31T09:49:52;5.10;;;2.00;;
77234;SDS011;66253;50.526;14.974;2023-07-31T09:52:21;5.50;;;2.00;;
77234;SDS011;66253;50.526;14.974;2023-07-31T09:54:52;4.60;;;1.60;;
77234;SDS011;66253;50.526;14.974;2023-07-31T09:57:21;9.80;;;1.70;;
77234;SDS011;66253;50.526;14.974;2023-07-31T09:59:49;5.60;;;1.60;;
77234;SDS011;66253;50.526;14.974;2023-07-31T10:02:22;5.10;;;1.40;;
77234;SDS011;66253;50.526;14.974;2023-07-31T10:04:51;4.50;;;1.20;;
77234;SDS011;66253;50.526;14.974;2023-07-31T10:07:23;2.90;;;1.10;;
77234;SDS011;66253;50.526;14.974;2023-07-31T10:09:55;4.20;;;1.40;;
77234;SDS011;66253;50.526;14.974;2023-07-31T10:12:26;6.00;;;1.40;;
77234;SDS011;66253;50.526;14.974;2023-07-31T10:14:54;5.30;;;1.80;;
77234;SDS011;66253;50.526;14.974;2023-07-31T10:17:23;5.50;;;1.90;;
77234;SDS011;66253;50.526;14.974;2023-07-31T10:19:52;5.50;;;1.50;;
77234;SDS011;66253;50.526;14.974;2023-07-31T10:22:21;6.70;;;1.70;;
77234;SDS011;66253;50.526;14.974;2023-07-31T10:24:50;7.50;;;1.60;;
77234;SDS011;66253;50.526;14.974;2023-07-31T10:27:21;6.00;;;2.00;;
77234;SDS011;66253;50.526;14.974;2023-07-31T10:29:49;6.50;;;1.60;;
77234;SDS011;66253;50.526;14.974;2023-07-31T10:34:46;6.50;;;1.40;;
77234;SDS011;66253;50.526;14.974;2023-07-31T10:37:22;4.70;;;1.40;;
77234;SDS011;66253;50.526;14.974;2023-07-31T10:39:58;4.50;;;1.60;;
77234;SDS011;66253;50.526;14.974;2023-07-31T10:42:33;6.70;;;1.60;;
77234;SDS011;66253;50.526;14.974;2023-07-31T10:45:03;4.50;;;1.50;;
77234;SDS011;66253;50.526;14.974;2023-07-31T10:47:38;4.20;;;2.10;;
77234;SDS011;66253;50.526;14.974;2023-07-31T10:50:16;6.00;;;1.30;;
77234;SDS011;66253;50.526;14.974;2023-07-31T10:52:46;4.90;;;1.80;;
77234;SDS011;66253;50.526;14.974;2023-07-31T10:55:16;5.00;;;1.60;;
77234;SDS011;66253;50.526;14.974;2023-07-31T10:57:51;5.80;;;1.40;;
77234;SDS011;66253;50.526;14.974;2023-07-31T11:00:21;5.60;;;2.10;;
77234;SDS011;66253;50.526;14.974;2023-07-31T11:02:57;5.60;;;1.60;;
77234;SDS011;66253;50.526;14.974;2023-07-31T11:08:17;5.20;;;1.50;;
77234;SDS011;66253;50.526;14.974;2023-07-31T11:10:47;7.40;;;1.60;;
77234;SDS011;66253;50.526;14.974;2023-07-31T11:13:16;5.00;;;1.30;;
77234;SDS011;66253;50.526;14.974;2023-07-31T11:15:45;5.20;;;1.50;;
77234;SDS011;66253;50.526;14.974;2023-07-31T11:18:13;5.50;;;1.30;;
77234;SDS011;66253;50.526;14.974;2023-07-31T11:20:41;5.00;;;1.40;;
77234;SDS011;66253;50.526;14.974;2023-07-31T11:23:10;16.30;;;1.90;;
77234;SDS011;66253;50.526;14.974;2023-07-31T11:25:39;3.80;;;1.60;;
77234;SDS011;66253;50.526;14.974;2023-07-31T11:28:08;4.40;;;1.40;;
77234;SDS011;66253;50.526;14.974;2023-07-31T11:34:05;9.80;;;1.70;;
77234;SDS011;66253;50.526;14.974;2023-07-31T11:36:33;7.00;;;1.50;;
77234;SDS011;66253;50.526;14.974;2023-07-31T11:39:05;5.80;;;1.90;;
77234;SDS011;66253;50.526;14.974;2023-07-31T11:41:34;4.10;;;1.40;;
77234;SDS011;66253;50.526;14.974;2023-07-31T11:44:03;5.00;;;1.30;;
77234;SDS011;66253;50.526;14.974;2023-07-31T11:46:31;4.50;;;1.10;;
77234;SDS011;66253;50.526;14.974;2023-07-31T11:49:00;5.80;;;1.20;;
77234;SDS011;66253;50.526;14.974;2023-07-31T11:51:29;5.90;;;1.50;;
77234;SDS011;66253;50.526;14.974;2023-07-31T11:53:57;5.80;;;1.30;;
77234;SDS011;66253;50.526;14.974;2023-07-31T11:56:27;3.80;;;1.10;;
77234;SDS011;66253;50.526;14.974;2023-07-31T11:58:57;4.10;;;1.20;;
77234;SDS011;66253;50.526;14.974;2023-07-31T12:01:26;3.30;;;0.80;;
77234;SDS011;66253;50.526;14.974;2023-07-31T12:03:55;6.50;;;1.40;;
77234;SDS011;66253;50.526;14.974;2023-07-31T12:06:28;5.20;;;1.30;;
77234;SDS011;66253;50.526;14.974;2023-07-31T12:09:03;4.00;;;1.60;;
77234;SDS011;66253;50.526;14.974;2023-07-31T12:11:31;5.90;;;1.20;;
77234;SDS011;66253;50.526;14.974;2023-07-31T12:14:08;5.00;;;1.20;;
77234;SDS011;66253;50.526;14.974;2023-07-31T12:16:47;4.40;;;1.10;;
77234;SDS011;66253;50.526;14.974;2023-07-31T12:19:19;5.00;;;1.10;;
77234;SDS011;66253;50.526;14.974;2023-07-31T12:21:49;5.60;;;1.20;;
77234;SDS011;66253;50.526;14.974;2023-07-31T12:24:19;4.60;;;1.20;;
77234;SDS011;66253;50.526;14.974;2023-07-31T12:26:48;3.70;;;1.20;;
77234;SDS011;66253;50.526;14.974;2023-07-31T12:29:16;5.20;;;1.00;;
77234;SDS011;66253;50.526;14.974;2023-07-31T12:31:44;3.20;;;0.90;;
77234;SDS011;66253;50.526;14.974;2023-07-31T12:34:16;2.80;;;0.70;;
77234;SDS011;66253;50.526;14.974;2023-07-31T12:36:46;5.20;;;1.00;;
77234;SDS011;66253;50.526;14.974;2023-07-31T12:39:14;3.60;;;1.10;;
77234;SDS011;66253;50.526;14.974;2023-07-31T12:41:43;3.90;;;1.20;;
77234;SDS011;66253;50.526;14.974;2023-07-31T12:44:11;4.40;;;1.10;;
77234;SDS011;66253;50.526;14.974;2023-07-31T12:46:39;4.00;;;1.00;;
77234;SDS011;66253;50.526;14.974;2023-07-31T12:49:07;3.40;;;0.90;;
77234;SDS011;66253;50.526;14.974;2023-07-31T12:51:36;3.70;;;1.00;;
77234;SDS011;66253;50.526;14.974;2023-07-31T12:54:04;5.00;;;1.30;;
77234;SDS011;66253;50.526;14.974;2023-07-31T12:56:32;5.20;;;0.90;;
77234;SDS011;66253;50.526;14.974;2023-07-31T12:59:00;5.50;;;1.00;;
77234;SDS011;66253;50.526;14.974;2023-07-31T13:01:29;3.70;;;1.10;;
77234;SDS011;66253;50.526;14.974;2023-07-31T13:03:57;3.90;;;1.10;;
77234;SDS011;66253;50.526;14.974;2023-07-31T13:06:25;4.00;;;1.20;;
77234;SDS011;66253;50.526;14.974;2023-07-31T13:08:54;3.20;;;0.90;;
77234;SDS011;66253;50.526;14.974;2023-07-31T13:11:22;3.30;;;0.90;;
77234;SDS011;66253;50.526;14.974;2023-07-31T13:13:50;3.40;;;0.70;;
77234;SDS011;66253;50.526;14.974;2023-07-31T13:16:18;4.60;;;1.00;;
77234;SDS011;66253;50.526;14.974;2023-07-31T13:18:47;3.80;;;0.90;;
77234;SDS011;66253;50.526;14.974;2023-07-31T13:21:16;3.70;;;1.10;;
77234;SDS011;66253;50.526;14.974;2023-07-31T13:23:44;3.40;;;0.70;;
77234;SDS011;66253;50.526;14.974;2023-07-31T13:26:13;4.80;;;1.50;;
77234;SDS011;66253;50.526;14.974;2023-07-31T13:28:41;4.40;;;0.70;;
77234;SDS011;66253;50.526;14.974;2023-07-31T13:31:09;5.00;;;1.20;;
77234;SDS011;66253;50.526;14.974;2023-07-31T13:33:37;2.70;;;0.60;;
77234;SDS011;66253;50.526;14.974;2023-07-31T13:36:06;3.10;;;0.80;;
77234;SDS011;66253;50.526;14.974;2023-07-31T13:38:34;4.20;;;0.90;;
77234;SDS011;66253;50.526;14.974;2023-07-31T13:41:02;3.10;;;0.60;;
77234;SDS011;66253;50.526;14.974;2023-07-31T13:43:31;3.40;;;1.00;;
77234;SDS011;66253;50.526;14.974;2023-07-31T13:45:59;4.30;;;0.90;;
77234;SDS011;66253;50.526;14.974;2023-07-31T13:48:27;4.80;;;0.60;;
77234;SDS011;66253;50.526;14.974;2023-07-31T13:50:55;3.00;;;0.60;;
77234;SDS011;66253;50.526;14.974;2023-07-31T13:53:24;2.90;;;1.30;;
77234;SDS011;66253;50.526;14.974;2023-07-31T13:55:52;2.60;;;0.70;;
77234;SDS011;66253;50.526;14.974;2023-07-31T13:58:20;4.50;;;1.00;;
77234;SDS011;66253;50.526;14.974;2023-07-31T14:00:48;4.10;;;1.00;;
77234;SDS011;66253;50.526;14.974;2023-07-31T14:03:17;4.30;;;0.90;;
77234;SDS011;66253;50.526;14.974;2023-07-31T14:05:45;3.90;;;1.00;;
77234;SDS011;66253;50.526;14.974;2023-07-31T14:08:14;3.00;;;0.90;;
77234;SDS011;66253;50.526;14.974;2023-07-31T14:10:42;4.00;;;1.30;;
77234;SDS011;66253;50.526;14.974;2023-07-31T14:13:10;4.40;;;0.70;;
77234;SDS011;66253;50.526;14.974;2023-07-31T14:15:41;4.30;;;1.00;;
77234;SDS011;66253;50.526;14.974;2023-07-31T14:18:09;3.20;;;1.10;;
77234;SDS011;66253;50.526;14.974;2023-07-31T14:20:38;3.40;;;1.50;;
77234;SDS011;66253;50.526;14.974;2023-07-31T14:25:34;4.10;;;0.70;;
77234;SDS011;66253;50.526;14.974;2023-07-31T14:28:02;9.70;;;1.40;;
77234;SDS011;66253;50.526;14.974;2023-07-31T14:30:31;5.00;;;1.50;;
77234;SDS011;66253;50.526;14.974;2023-07-31T14:32:59;3.90;;;1.00;;
77234;SDS011;66253;50.526;14.974;2023-07-31T14:35:28;2.70;;;0.70;;
77234;SDS011;66253;50.526;14.974;2023-07-31T14:37:56;3.80;;;1.20;;
77234;SDS011;66253;50.526;14.974;2023-07-31T14:40:24;3.70;;;1.00;;
77234;SDS011;66253;50.526;14.974;2023-07-31T14:42:53;3.70;;;0.80;;
77234;SDS011;66253;50.526;14.974;2023-07-31T14:45:21;3.00;;;0.50;;
77234;SDS011;66253;50.526;14.974;2023-07-31T14:47:49;3.80;;;0.80;;
77234;SDS011;66253;50.526;14.974;2023-07-31T14:50:19;5.30;;;0.60;;
77234;SDS011;66253;50.526;14.974;2023-07-31T14:52:48;2.90;;;0.90;;
77234;SDS011;66253;50.526;14.974;2023-07-31T14:55:16;3.70;;;0.80;;
77234;SDS011;66253;50.526;14.974;2023-07-31T14:57:44;3.80;;;1.10;;
77234;SDS011;66253;50.526;14.974;2023-07-31T15:00:14;3.50;;;1.20;;
77234;SDS011;66253;50.526;14.974;2023-07-31T15:02:42;2.70;;;0.60;;
77234;SDS011;66253;50.526;14.974;2023-07-31T15:05:10;2.50;;;0.70;;
77234;SDS011;66253;50.526;14.974;2023-07-31T15:07:39;4.00;;;1.00;;
77234;SDS011;66253;50.526;14.974;2023-07-31T15:10:08;4.70;;;1.10;;
77234;SDS011;66253;50.526;14.974;2023-07-31T15:12:36;4.10;;;1.20;;
77234;SDS011;66253;50.526;14.974;2023-07-31T15:15:07;3.10;;;1.00;;
77234;SDS011;66253;50.526;14.974;2023-07-31T15:17:35;2.80;;;0.90;;
77234;SDS011;66253;50.526;14.974;2023-07-31T15:20:04;3.20;;;1.50;;